createdAt,value
2019-02-15T00:16:58.988Z,99.90
2019-02-15T00:19:43.286Z,99.90
2019-02-15T00:22:19.827Z,99.90
2019-02-15T00:24:56.751Z,99.90
2019-02-15T00:27:33.647Z,99.90
2019-02-15T00:30:13.069Z,99.90
2019-02-15T00:32:49.484Z,99.90
2019-02-15T00:35:26.274Z,99.90
2019-02-15T00:38:03.205Z,99.90
2019-02-15T00:40:40.157Z,99.90
2019-02-15T00:43:22.268Z,99.90
2019-02-15T00:46:13.486Z,99.90
2019-02-15T00:48:50.355Z,99.90
2019-02-15T00:51:45.865Z,99.90
2019-02-15T00:54:31.181Z,99.90
2019-02-15T00:57:25.616Z,99.90
2019-02-15T01:00:20.334Z,99.90
2019-02-15T01:03:13.798Z,99.90
2019-02-15T01:06:17.391Z,99.90
2019-02-15T01:09:15.505Z,99.90
2019-02-15T01:12:01.652Z,99.90
2019-02-15T01:14:38.625Z,99.90
2019-02-15T01:17:15.645Z,99.90
2019-02-15T01:19:52.382Z,99.90
2019-02-15T01:22:29.265Z,99.90
2019-02-15T01:25:06.023Z,99.90
2019-02-15T01:28:06.603Z,99.90
2019-02-15T01:31:04.470Z,99.90
2019-02-15T01:33:59.280Z,99.90
2019-02-15T01:37:06.876Z,99.90
2019-02-15T01:40:04.345Z,99.90
2019-02-15T01:43:01.317Z,99.90
2019-02-15T01:45:42.447Z,99.90
2019-02-15T01:48:19.142Z,99.20
2019-02-15T01:50:55.802Z,99.40
2019-02-15T01:53:32.937Z,99.30
2019-02-15T01:56:09.790Z,99.90
2019-02-15T01:58:47.038Z,98.90
2019-02-15T02:01:26.248Z,99.30
2019-02-15T02:04:02.866Z,99.30
2019-02-15T02:06:39.692Z,98.70
2019-02-15T02:09:16.491Z,98.50
2019-02-15T02:11:53.351Z,98.60
2019-02-15T02:14:30.684Z,98.00
2019-02-15T02:17:07.658Z,99.00
2019-02-15T02:19:44.505Z,98.10
2019-02-15T02:22:21.362Z,96.80
2019-02-15T02:25:19.503Z,96.80
2019-02-15T02:27:56.352Z,96.80
2019-02-15T02:30:33.234Z,96.50
2019-02-15T02:33:10.192Z,97.00
2019-02-15T02:35:47.036Z,96.20
2019-02-15T02:38:23.652Z,95.60
2019-02-15T02:41:00.423Z,95.30
2019-02-15T02:43:37.614Z,95.30
2019-02-15T02:46:16.858Z,95.10
2019-02-15T02:48:53.780Z,94.80
2019-02-15T02:51:31.434Z,94.30
2019-02-15T02:54:08.449Z,94.10
2019-02-15T02:56:44.955Z,93.90
2019-02-15T02:59:21.310Z,94.50
2019-02-15T03:01:58.012Z,94.20
2019-02-15T03:04:35.611Z,95.00
2019-02-15T03:07:11.874Z,94.30
2019-02-15T03:09:48.793Z,93.90
2019-02-15T03:12:25.254Z,92.80
2019-02-15T03:15:02.233Z,93.10
2019-02-15T03:17:38.603Z,92.50
2019-02-15T03:20:15.332Z,91.80
2019-02-15T03:22:53.125Z,92.30
2019-02-15T03:25:29.972Z,92.00
2019-02-15T03:28:09.079Z,91.70
2019-02-15T03:30:46.100Z,91.70
2019-02-15T03:33:22.145Z,92.00
2019-02-15T03:36:02.622Z,90.80
2019-02-15T03:38:56.190Z,92.20
2019-02-15T03:41:35.481Z,90.90
2019-02-15T03:44:21.397Z,90.50
2019-02-15T03:46:50.693Z,90.90
2019-02-15T03:49:28.148Z,91.10
2019-02-15T03:52:04.867Z,90.60
2019-02-15T03:54:41.182Z,90.30
2019-02-15T03:57:18.227Z,90.60
2019-02-15T03:59:55.194Z,92.20
2019-02-15T04:02:31.876Z,91.10
2019-02-15T04:05:09.005Z,91.70
2019-02-15T04:07:45.600Z,90.50
2019-02-15T04:10:22.453Z,88.60
2019-02-15T04:12:59.057Z,88.80
2019-02-15T04:15:37.041Z,89.40
2019-02-15T04:18:13.773Z,87.80
2019-02-15T04:20:50.680Z,88.60
2019-02-15T04:23:27.301Z,90.20
2019-02-15T04:26:04.018Z,88.50
2019-02-15T04:28:41.201Z,88.40
2019-02-15T04:31:18.490Z,86.80
2019-02-15T04:33:55.475Z,86.40
2019-02-15T04:36:32.724Z,87.30
2019-02-15T04:39:09.944Z,86.30
2019-02-15T04:41:46.653Z,89.40
2019-02-15T04:44:24.209Z,86.10
2019-02-15T04:47:01.064Z,86.40
2019-02-15T04:49:37.507Z,85.80
2019-02-15T04:52:14.551Z,86.60
2019-02-15T04:54:52.131Z,85.50
2019-02-15T04:57:29.424Z,85.80
2019-02-15T05:00:08.057Z,87.00
2019-02-15T05:02:50.272Z,85.00
2019-02-15T05:05:33.079Z,86.10
2019-02-15T05:08:11.291Z,86.70
2019-02-15T05:10:47.956Z,84.70
2019-02-15T05:13:24.909Z,84.90
2019-02-15T05:16:01.639Z,85.10
2019-02-15T05:18:41.666Z,84.50
2019-02-15T05:21:24.735Z,84.60
2019-02-15T05:24:12.873Z,84.10
2019-02-15T05:26:50.274Z,83.50
2019-02-15T05:29:28.205Z,82.30
2019-02-15T05:32:07.262Z,83.40
2019-02-15T05:34:45.466Z,82.20
2019-02-15T05:37:22.635Z,83.00
2019-02-15T05:39:59.613Z,81.90
2019-02-15T05:42:36.023Z,85.00
2019-02-15T05:45:13.019Z,83.40
2019-02-15T05:47:51.189Z,81.20
2019-02-15T05:50:28.306Z,82.20
2019-02-15T05:53:06.114Z,82.10
2019-02-15T05:55:42.681Z,81.30
2019-02-15T05:58:18.906Z,81.00
2019-02-15T06:00:56.006Z,81.10
2019-02-15T06:03:32.308Z,80.60
2019-02-15T06:06:09.793Z,79.80
2019-02-15T06:08:46.187Z,79.10
2019-02-15T06:11:22.809Z,80.70
2019-02-15T06:13:59.517Z,80.70
2019-02-15T06:16:36.824Z,80.20
2019-02-15T06:19:13.888Z,78.00
2019-02-15T06:21:50.819Z,81.20
2019-02-15T06:24:27.648Z,82.30
2019-02-15T06:27:04.381Z,78.80
2019-02-15T06:29:41.536Z,81.50
2019-02-15T06:32:18.101Z,79.80
2019-02-15T06:34:55.105Z,78.90
2019-02-15T06:37:31.785Z,81.20
2019-02-15T06:40:08.877Z,84.30
2019-02-15T06:42:45.240Z,79.50
2019-02-15T06:45:25.270Z,81.10
2019-02-15T06:48:00.926Z,79.50
2019-02-15T06:50:37.509Z,80.10
2019-02-15T06:53:14.433Z,78.60
2019-02-15T06:55:51.144Z,77.20
2019-02-15T06:58:27.669Z,77.00
2019-02-15T07:01:20.910Z,76.60
2019-02-15T07:04:18.887Z,76.10
2019-02-15T07:06:55.497Z,73.70
2019-02-15T07:09:32.414Z,74.90
2019-02-15T07:12:09.580Z,77.70
2019-02-15T07:14:46.299Z,78.50
2019-02-15T07:17:23.133Z,78.40
2019-02-15T07:20:00.070Z,76.20
2019-02-15T07:22:38.071Z,77.30
2019-02-15T07:25:16.103Z,78.60
2019-02-15T07:27:52.887Z,77.10
2019-02-15T07:30:29.826Z,75.80
2019-02-15T07:33:06.533Z,76.50
2019-02-15T07:35:44.032Z,74.50
2019-02-15T07:38:20.578Z,76.20
2019-02-15T07:40:57.730Z,82.10
2019-02-15T07:43:34.885Z,76.00
2019-02-15T07:46:12.215Z,81.40
2019-02-15T07:48:48.658Z,79.20
2019-02-15T07:51:25.444Z,78.30
2019-02-15T07:54:01.994Z,79.50
2019-02-15T07:56:39.280Z,78.30
2019-02-15T07:59:16.804Z,79.80
2019-02-15T08:02:01.579Z,76.10
2019-02-15T08:04:32.000Z,76.30
2019-02-15T08:07:08.898Z,75.00
2019-02-15T08:09:45.910Z,77.50
2019-02-15T08:12:22.456Z,74.80
2019-02-15T08:14:59.173Z,74.00
2019-02-15T08:17:36.772Z,73.60
2019-02-15T08:20:14.652Z,74.40
2019-02-15T08:22:51.334Z,75.10
2019-02-15T08:25:28.547Z,77.90
2019-02-15T08:28:05.854Z,74.80
2019-02-15T08:30:42.431Z,75.40
2019-02-15T08:33:20.388Z,73.60
2019-02-15T08:35:57.072Z,74.10
2019-02-15T08:38:33.482Z,73.60
2019-02-15T08:41:10.051Z,74.40
2019-02-15T08:43:47.064Z,73.40
2019-02-15T08:46:24.064Z,74.70
2019-02-15T08:49:01.719Z,72.50
2019-02-15T08:51:38.903Z,76.70
2019-02-15T08:54:15.444Z,74.90
2019-02-15T08:56:52.234Z,74.20
2019-02-15T08:59:29.806Z,73.60
2019-02-15T09:02:24.326Z,73.50
2019-02-15T09:05:02.374Z,73.20
2019-02-15T09:07:39.647Z,73.00
2019-02-15T09:10:17.428Z,71.30
2019-02-15T09:12:53.854Z,73.00
2019-02-15T09:15:30.718Z,70.40
2019-02-15T09:18:07.740Z,74.70
2019-02-15T09:20:44.637Z,78.60
2019-02-15T09:23:21.601Z,76.90
2019-02-15T09:25:57.877Z,73.90
2019-02-15T09:28:48.202Z,75.90
2019-02-15T09:31:25.320Z,71.60
2019-02-15T09:34:01.820Z,82.30
2019-02-15T09:36:39.417Z,77.00
2019-02-15T09:39:15.444Z,74.80
2019-02-15T09:41:52.448Z,75.50
2019-02-15T09:44:29.123Z,76.50
2019-02-15T09:47:05.407Z,75.70
2019-02-15T09:49:42.757Z,73.80
2019-02-15T09:52:19.780Z,75.90
2019-02-15T09:54:56.270Z,74.00
2019-02-15T09:57:33.396Z,71.80
2019-02-15T10:00:09.965Z,74.00
2019-02-15T10:02:46.751Z,78.00
2019-02-15T10:05:24.494Z,84.60
2019-02-15T10:08:01.304Z,77.50
2019-02-15T10:10:38.151Z,79.20
2019-02-15T10:13:14.749Z,82.20
2019-02-15T10:15:51.288Z,81.80
2019-02-15T10:18:29.023Z,81.30
2019-02-15T10:21:05.329Z,82.30
2019-02-15T10:23:42.341Z,83.00
2019-02-15T10:26:19.630Z,84.80
2019-02-15T10:28:57.366Z,84.60
2019-02-15T10:31:34.803Z,84.10
2019-02-15T10:34:10.836Z,84.80
2019-02-15T10:36:48.082Z,85.00
2019-02-15T10:39:24.483Z,83.60
2019-02-15T10:42:01.418Z,83.00
2019-02-15T10:44:38.389Z,82.70
2019-02-15T10:47:24.418Z,87.30
2019-02-15T10:49:53.147Z,91.50
2019-02-15T10:52:30.532Z,93.00
2019-02-15T10:55:07.463Z,93.10
2019-02-15T10:57:44.665Z,92.40
2019-02-15T11:00:22.361Z,92.60
2019-02-15T11:02:58.950Z,92.60
2019-02-15T11:05:35.794Z,92.60
2019-02-15T11:08:12.581Z,92.60
2019-02-15T11:10:49.362Z,93.80
2019-02-15T11:13:26.084Z,96.10
2019-02-15T11:16:02.923Z,95.10
2019-02-15T11:18:39.731Z,95.60
2019-02-15T11:21:16.106Z,95.90
2019-02-15T11:23:53.179Z,96.00
2019-02-15T11:26:29.930Z,95.50
2019-02-15T11:29:06.801Z,95.40
2019-02-15T11:31:43.699Z,94.00
2019-02-15T11:34:20.705Z,95.20
2019-02-15T11:36:57.379Z,95.30
2019-02-15T11:39:34.156Z,96.00
2019-02-15T11:42:10.978Z,95.00
2019-02-15T11:44:47.565Z,93.70
2019-02-15T11:47:24.676Z,92.80
2019-02-15T11:50:01.454Z,94.00
2019-02-15T11:52:39.758Z,94.50
2019-02-15T11:55:21.672Z,95.60
2019-02-15T11:57:58.932Z,95.30
2019-02-15T12:00:36.792Z,95.30
2019-02-15T12:03:15.239Z,96.40
2019-02-15T12:05:52.790Z,95.90
2019-02-15T12:08:29.739Z,95.80
2019-02-15T12:11:06.391Z,94.30
2019-02-15T12:13:43.249Z,94.80
2019-02-15T12:16:20.073Z,94.50
2019-02-15T12:18:56.676Z,94.30
2019-02-15T12:21:33.518Z,94.70
2019-02-15T12:24:10.142Z,93.80
2019-02-15T12:26:46.956Z,94.20
2019-02-15T12:29:23.863Z,95.00
2019-02-15T12:32:00.614Z,94.20
2019-02-15T12:34:37.420Z,94.60
2019-02-15T12:37:14.403Z,94.20
2019-02-15T12:39:51.413Z,93.60
2019-02-15T12:42:28.281Z,92.70
2019-02-15T12:45:04.775Z,92.40
2019-02-15T12:47:41.363Z,93.70
2019-02-15T12:50:19.294Z,93.90
2019-02-15T12:52:55.847Z,93.10
2019-02-15T12:55:32.895Z,93.30
2019-02-15T12:58:10.972Z,93.50
2019-02-15T13:00:48.074Z,94.00
2019-02-15T13:03:24.795Z,94.50
2019-02-15T13:06:02.070Z,94.50
2019-02-15T13:08:38.767Z,94.40
2019-02-15T13:11:15.629Z,94.90
2019-02-15T13:13:52.781Z,94.30
2019-02-15T13:16:30.500Z,95.20
2019-02-15T13:19:06.839Z,93.80
2019-02-15T13:21:43.338Z,94.10
2019-02-15T13:24:20.225Z,94.20
2019-02-15T13:26:56.697Z,95.40
2019-02-15T13:29:34.468Z,97.30
2019-02-15T13:32:11.530Z,96.80
2019-02-15T13:34:48.805Z,96.20
2019-02-15T13:37:25.556Z,97.10
2019-02-15T13:40:02.258Z,96.80
2019-02-15T13:42:39.491Z,96.70
2019-02-15T13:45:17.542Z,97.30
2019-02-15T13:47:54.927Z,96.60
2019-02-15T13:50:31.845Z,96.30
2019-02-15T13:53:09.204Z,97.00
2019-02-15T13:55:46.601Z,97.10
2019-02-15T13:58:23.297Z,97.40
2019-02-15T14:01:01.019Z,97.10
2019-02-15T14:03:38.876Z,97.50
2019-02-15T14:06:15.966Z,97.10
2019-02-15T14:08:53.340Z,97.90
2019-02-15T14:11:30.705Z,97.40
2019-02-15T14:14:07.379Z,96.90
2019-02-15T14:16:45.408Z,96.20
2019-02-15T14:19:22.270Z,96.70
2019-02-15T14:21:58.970Z,97.40
2019-02-15T14:24:36.167Z,97.50
2019-02-15T14:27:13.665Z,97.70
2019-02-15T14:29:50.091Z,98.50
2019-02-15T14:32:27.835Z,97.70
2019-02-15T14:35:04.814Z,97.90
2019-02-15T14:37:41.565Z,97.80
2019-02-15T14:40:18.707Z,99.20
2019-02-15T14:42:55.930Z,99.50
2019-02-15T14:45:32.958Z,99.60
2019-02-15T14:48:10.099Z,99.80
2019-02-15T14:50:46.938Z,99.50
2019-02-15T14:53:24.315Z,99.90
2019-02-15T14:56:01.499Z,99.90
2019-02-15T14:58:39.048Z,99.60
2019-02-15T15:01:16.167Z,99.70
2019-02-15T15:03:53.281Z,99.70
2019-02-15T15:06:30.041Z,99.90
2019-02-15T15:09:07.822Z,99.90
2019-02-15T15:11:45.600Z,99.90
2019-02-15T15:14:22.675Z,99.90
2019-02-15T15:16:59.491Z,99.90
2019-02-15T15:19:36.729Z,99.90
2019-02-15T15:22:13.973Z,99.90
2019-02-15T15:24:50.237Z,99.90
2019-02-15T15:27:27.820Z,99.90
2019-02-15T15:30:05.101Z,99.90
2019-02-15T15:32:41.964Z,99.90
2019-02-15T15:35:17.625Z,99.90
2019-02-15T15:38:05.272Z,99.90
2019-02-15T15:40:47.609Z,99.90
2019-02-15T15:43:24.905Z,99.90
2019-02-15T15:46:01.539Z,99.90
2019-02-15T15:48:38.438Z,99.90
2019-02-15T15:51:15.881Z,99.90
2019-02-15T15:53:52.788Z,99.90
2019-02-15T15:56:29.604Z,99.90
2019-02-15T15:59:07.651Z,99.90
2019-02-15T16:01:44.761Z,99.90
2019-02-15T16:04:22.008Z,99.90
2019-02-15T16:06:59.262Z,99.90
2019-02-15T16:09:36.274Z,99.90
2019-02-15T16:12:12.679Z,99.90
2019-02-15T16:14:49.745Z,99.90
2019-02-15T16:17:30.658Z,99.90
2019-02-15T16:20:07.532Z,99.90
2019-02-15T16:22:45.086Z,99.90
2019-02-15T16:25:22.467Z,99.90
2019-02-15T16:27:59.795Z,99.90
2019-02-15T16:30:37.143Z,99.90
2019-02-15T16:33:13.869Z,99.90
2019-02-15T16:35:51.527Z,99.90
2019-02-15T16:38:28.211Z,99.90
2019-02-15T16:41:05.443Z,99.90
2019-02-15T16:43:42.738Z,99.90
2019-02-15T16:46:20.146Z,99.90
2019-02-15T16:48:57.070Z,99.90
2019-02-15T16:51:33.937Z,99.90
2019-02-15T16:54:10.699Z,99.90
2019-02-15T16:56:47.449Z,99.90
2019-02-15T16:59:24.161Z,99.90
2019-02-15T17:02:01.141Z,99.90
2019-02-15T17:04:37.701Z,99.90
2019-02-15T17:07:14.608Z,99.90
2019-02-15T17:09:51.600Z,99.90
2019-02-15T17:12:28.590Z,99.90
2019-02-15T17:15:05.110Z,99.90
2019-02-15T17:17:42.177Z,99.90
2019-02-15T17:20:18.875Z,99.90
2019-02-15T17:22:55.093Z,99.90
2019-02-15T17:25:31.812Z,99.90
2019-02-15T17:28:08.614Z,99.90
2019-02-15T17:30:45.603Z,99.90
2019-02-15T17:33:22.169Z,99.90
2019-02-15T17:35:58.852Z,99.90
2019-02-15T17:38:35.641Z,99.90
2019-02-15T17:41:12.823Z,99.90
2019-02-15T17:43:51.420Z,99.90
2019-02-15T17:46:28.562Z,99.90
2019-02-15T17:49:05.082Z,99.90
2019-02-15T17:51:42.029Z,99.90
2019-02-15T17:54:18.683Z,99.90
2019-02-15T17:56:55.366Z,99.90
2019-02-15T17:59:32.087Z,99.90
2019-02-15T18:02:10.421Z,99.90
2019-02-15T18:04:47.257Z,99.90
2019-02-15T18:07:24.383Z,99.90
2019-02-15T18:10:01.211Z,99.90
2019-02-15T18:12:39.827Z,99.90
2019-02-15T18:15:16.786Z,99.90
2019-02-15T18:17:53.992Z,99.90
2019-02-15T18:20:30.796Z,99.90
2019-02-15T18:23:08.693Z,99.90
2019-02-15T18:25:46.186Z,99.90
2019-02-15T18:28:23.263Z,99.90
2019-02-15T18:31:00.014Z,99.90
2019-02-15T18:33:37.962Z,99.90
2019-02-15T18:36:14.933Z,99.90
2019-02-15T18:38:52.281Z,99.90
2019-02-15T18:41:29.166Z,99.90
2019-02-15T18:44:06.745Z,99.90
2019-02-15T18:46:43.659Z,99.90
2019-02-15T18:49:21.414Z,99.90
2019-02-15T18:51:58.493Z,99.90
2019-02-15T18:54:35.820Z,99.90
2019-02-15T18:57:12.847Z,99.90
2019-02-15T18:59:50.344Z,99.90
2019-02-15T19:02:27.454Z,99.90
2019-02-15T19:05:04.076Z,99.90
2019-02-15T19:07:42.573Z,99.90
2019-02-15T19:10:20.927Z,99.90
2019-02-15T19:12:57.604Z,99.90
2019-02-15T19:15:34.216Z,99.90
2019-02-15T19:18:11.464Z,99.90
2019-02-15T19:20:49.397Z,99.90
2019-02-15T19:23:26.177Z,99.90
2019-02-15T19:26:02.691Z,99.90
2019-02-15T19:28:39.691Z,99.90
2019-02-15T19:31:16.336Z,99.90
2019-02-15T19:33:53.276Z,99.90
2019-02-15T19:36:30.003Z,99.90
2019-02-15T19:39:08.272Z,99.90
2019-02-15T19:41:46.262Z,99.90
2019-02-15T19:44:23.414Z,99.90
2019-02-15T19:47:00.644Z,99.90
2019-02-15T19:49:39.104Z,99.90
2019-02-15T19:52:15.493Z,99.90
2019-02-15T19:54:51.757Z,99.90
2019-02-15T19:57:28.313Z,99.90
2019-02-15T20:00:04.717Z,99.90
2019-02-15T20:02:41.982Z,99.90
2019-02-15T20:05:18.735Z,99.90
2019-02-15T20:07:55.441Z,99.90
2019-02-15T20:10:32.696Z,99.90
2019-02-15T20:13:09.259Z,99.90
2019-02-15T20:15:46.020Z,99.90
2019-02-15T20:18:22.699Z,99.90
2019-02-15T20:20:59.672Z,99.90
2019-02-15T20:23:36.316Z,99.90
2019-02-15T20:26:13.183Z,99.90
2019-02-15T20:28:49.890Z,99.90
2019-02-15T20:31:26.644Z,99.90
2019-02-15T20:34:03.686Z,99.90
2019-02-15T20:36:39.943Z,99.90
2019-02-15T20:39:16.928Z,99.90
2019-02-15T20:41:53.762Z,99.90
2019-02-15T20:44:31.326Z,99.90
2019-02-15T20:47:07.855Z,99.90
2019-02-15T20:49:44.765Z,99.90
2019-02-15T20:52:21.525Z,99.90
2019-02-15T20:54:58.166Z,99.90
2019-02-15T20:57:35.004Z,99.90
2019-02-15T21:00:13.850Z,99.90
2019-02-15T21:02:50.888Z,99.90
2019-02-15T21:05:27.897Z,99.90
2019-02-15T21:08:05.129Z,99.90
2019-02-15T21:10:41.817Z,99.90
2019-02-15T21:13:20.721Z,99.90
2019-02-15T21:15:57.020Z,99.90
2019-02-15T21:18:33.697Z,99.90
2019-02-15T21:21:10.431Z,99.90
2019-02-15T21:23:47.417Z,99.90
2019-02-15T21:26:24.176Z,99.90
2019-02-15T21:29:01.321Z,99.90
2019-02-15T21:31:37.720Z,99.90
2019-02-15T21:34:14.612Z,99.90
2019-02-15T21:36:51.640Z,99.90
2019-02-15T21:39:29.590Z,99.90
2019-02-15T21:42:06.368Z,99.90
2019-02-15T21:44:44.040Z,99.90
2019-02-15T21:47:21.078Z,99.90
2019-02-15T21:49:59.078Z,99.90
2019-02-15T21:52:43.773Z,99.90
2019-02-15T21:55:14.397Z,99.90
2019-02-15T21:58:00.767Z,99.90
2019-02-15T22:00:29.927Z,99.90
2019-02-15T22:03:06.606Z,99.90
2019-02-15T22:05:43.793Z,99.90
2019-02-15T22:08:21.093Z,99.90
2019-02-15T22:10:57.853Z,99.90
2019-02-15T22:13:34.947Z,99.90
2019-02-15T22:16:11.851Z,99.90
2019-02-15T22:18:49.110Z,99.90
2019-02-15T22:21:25.988Z,99.90
2019-02-15T22:24:03.460Z,99.90
2019-02-15T22:26:39.986Z,99.90
2019-02-15T22:29:17.186Z,99.90
2019-02-15T22:31:53.934Z,99.90
2019-02-15T22:34:31.422Z,99.90
2019-02-15T22:37:07.907Z,99.90
2019-02-15T22:39:45.776Z,99.90
2019-02-15T22:42:22.288Z,99.90
2019-02-15T22:45:00.303Z,99.90
2019-02-15T22:47:36.853Z,99.90
2019-02-15T22:50:13.791Z,99.90
2019-02-15T22:52:50.173Z,99.90
2019-02-15T22:55:27.248Z,99.90
2019-02-15T22:58:04.672Z,99.90
2019-02-15T23:00:53.174Z,99.90
2019-02-15T23:03:31.248Z,99.90
2019-02-15T23:06:07.749Z,99.90
2019-02-15T23:08:44.274Z,99.90
2019-02-15T23:11:21.266Z,99.90
2019-02-15T23:13:57.906Z,99.90
2019-02-15T23:16:35.200Z,99.90
2019-02-15T23:19:11.602Z,99.90
2019-02-15T23:21:48.676Z,99.90
2019-02-15T23:24:25.556Z,99.90
2019-02-15T23:27:02.782Z,99.90
2019-02-15T23:29:39.660Z,99.90
2019-02-15T23:32:16.854Z,99.90
2019-02-15T23:34:54.735Z,99.90
2019-02-15T23:37:31.491Z,99.90
2019-02-15T23:40:08.090Z,99.90
2019-02-15T23:42:44.855Z,99.90
2019-02-15T23:45:22.826Z,99.90
2019-02-15T23:47:59.829Z,99.90
2019-02-15T23:50:36.850Z,99.90
2019-02-15T23:53:14.059Z,99.90
2019-02-15T23:55:50.454Z,99.90
2019-02-15T23:58:27.377Z,99.90
